Darstellungsparameter: Aktuell verwendete Einstellungen:
Skalierung der Graphiken ... ?
xyx+y,   Skalierungsfaktor:      Skalierung: Modus: x, Faktor: 1
Darstellungszeitraum ... ?
Vom - - bis: - -   Zeitraum: 01.02.2015 - 01.02.2015
Min/Max/Avg-Anzeige ... ?
Zeige MMA aktuell
Zeige MMA Monat
Zeige MMA alles
Zeige --A aktuell
Zeige --A Monat
Zeige --A alles
Keine MMA-Anzeige
MMA:
Average (ber die Originaldaten)
MMA-Basis: 01.02.2015 - 01.02.2015
Quicknavigation für Darstellung... ?
Tage:      1T, 2T, 3T, 5T -1T -2T -3T -5T +1T +2T +3T +5T
Wochen: 1W, 2W, 3W -1W -2W -3W +1W +2W +3W
Monate: 1M, 3M, 6M -1M -3M -6M +1M +3M +6M
Jahre:    1J, 3J, 5J, 10J -1J -3J -5J -10J +1J +3J +5J +10J
Nutze für die Darstellung ... ?
Originaldaten oder Mittelwerte auf ...
Stundenbasis Tagesbasis Wochenbasis
Monatsbasis Jahresbasis      Datenbasis: Original-Daten
Darstellen als:
Statistik (Auto) Statistik J:M      Darstellung:
Zur Graphik,    zurück zur Übersicht aller Sensoren.
 
Tabellarische Datenbersicht: ?
 
Sensor: Nr:Datum:Temp:Abs-Feuchte:Windchill:Wind:
Aussen-T/F 1 01-02-2015 08:50:00 0.7 C 4.53 g/m*3 0.7 C 1.6 km/h
2 01-02-2015 08:55:00 0.6 C 4.54 g/m*3 0.6 C 3.2 km/h
3 01-02-2015 09:00:00 0.6 C 4.54 g/m*3 0.6 C 1.6 km/h
4 01-02-2015 09:05:00 0.6 C 4.54 g/m*3 0.6 C 1.6 km/h
5 01-02-2015 09:10:00 0.6 C 4.54 g/m*3 0.6 C 1.6 km/h
6 01-02-2015 09:40:00 0.3 C 4.55 g/m*3 0.3 C 1.6 km/h
7 01-02-2015 09:45:00 0.3 C 4.55 g/m*3 0.3 C 4.8 km/h
8 01-02-2015 09:50:00 0.3 C 4.55 g/m*3 0.3 C 3.2 km/h
9 01-02-2015 09:55:00 0.6 C 4.6 g/m*3 0.6 C 1.6 km/h
10 01-02-2015 10:00:00 0.7 C 4.63 g/m*3 0.7 C 3.2 km/h
11 01-02-2015 10:05:00 0.7 C 4.63 g/m*3 0.7 C 4.8 km/h
12 01-02-2015 10:10:00 1.1 C 4.65 g/m*3 -1.48 C 8.1 km/h
13 01-02-2015 10:15:00 1.4 C 4.75 g/m*3 -1.95 C 11.3 km/h
14 01-02-2015 10:20:00 1.6 C 4.76 g/m*3 -0.89 C 8.1 km/h
15 01-02-2015 10:25:00 1.7 C 4.79 g/m*3 -1.59 C 11.3 km/h
16 01-02-2015 10:30:00 1.8 C 4.77 g/m*3 -1.47 C 11.3 km/h
17 01-02-2015 10:35:00 1.9 C 4.8 g/m*3 -1.35 C 11.3 km/h
18 01-02-2015 10:40:00 1.9 C 4.8 g/m*3 -0.97 C 9.7 km/h
19 01-02-2015 10:45:00 1.9 C 4.8 g/m*3 -0.97 C 9.7 km/h
20 01-02-2015 10:50:00 1.9 C 4.8 g/m*3 0.01 C 6.4 km/h
21 01-02-2015 10:55:00 2 C 4.83 g/m*3 -0.42 C 8.1 km/h
22 01-02-2015 11:00:00 2 C 4.89 g/m*3 -0.42 C 8.1 km/h
23 01-02-2015 11:05:00 2 C 4.89 g/m*3 -0.85 C 9.7 km/h
24 01-02-2015 11:10:00 2 C 4.95 g/m*3 -0.42 C 8.1 km/h
25 01-02-2015 11:15:00 2 C 4.95 g/m*3 -0.42 C 8.1 km/h
Sensor: Nr:Datum:Temp:Abs-Feuchte:Windchill:Wind:
Aussen-T/F 26 01-02-2015 11:20:00 2 C 4.95 g/m*3 2 C 4.8 km/h
27 01-02-2015 11:25:00 1.9 C 4.91 g/m*3 1.9 C 4.8 km/h
28 01-02-2015 11:30:00 1.9 C 4.91 g/m*3 -0.97 C 9.7 km/h
29 01-02-2015 11:35:00 1.8 C 4.88 g/m*3 -0.1 C 6.4 km/h
30 01-02-2015 11:40:00 1.8 C 4.88 g/m*3 -1.47 C 11.3 km/h
31 01-02-2015 11:45:00 1.8 C 4.88 g/m*3 -0.1 C 6.4 km/h
32 01-02-2015 11:50:00 1.5 C 4.99 g/m*3 1.5 C 4.8 km/h
33 01-02-2015 11:55:00 1.4 C 5.01 g/m*3 -0.56 C 6.4 km/h
34 01-02-2015 12:00:00 1.4 C 5.01 g/m*3 1.4 C 3.2 km/h
35 01-02-2015 12:05:00 1.3 C 4.98 g/m*3 1.3 C 4.8 km/h
36 01-02-2015 12:10:00 1.3 C 5.03 g/m*3 1.3 C 1.6 km/h
37 01-02-2015 12:15:00 1.3 C 5.03 g/m*3 1.3 C 3.2 km/h
38 01-02-2015 12:20:00 1.3 C 5.03 g/m*3 1.3 C 1.6 km/h
39 01-02-2015 12:25:00 1.3 C 5.03 g/m*3 1.3 C 1.6 km/h
40 01-02-2015 12:30:00 1.3 C 5.03 g/m*3 1.3 C 0 km/h
41 01-02-2015 12:35:00 1.3 C 5.03 g/m*3 1.3 C 4.8 km/h
42 01-02-2015 12:40:00 1.3 C 5.03 g/m*3 1.3 C 3.2 km/h
43 01-02-2015 12:45:00 1.4 C 5.07 g/m*3 1.4 C 3.2 km/h
44 01-02-2015 12:50:00 1.5 C 5.16 g/m*3 1.5 C 4.8 km/h
45 01-02-2015 12:55:00 1.6 C 5.19 g/m*3 1.6 C 4.8 km/h
46 01-02-2015 13:00:00 1.7 C 5.23 g/m*3 -0.22 C 6.4 km/h
47 01-02-2015 13:05:00 1.8 C 5.26 g/m*3 1.8 C 4.8 km/h
48 01-02-2015 13:10:00 1.9 C 5.3 g/m*3 -0.54 C 8.1 km/h
49 01-02-2015 13:15:00 2.1 C 5.37 g/m*3 0.24 C 6.4 km/h
50 01-02-2015 13:20:00 2.2 C 5.35 g/m*3 2.2 C 4.8 km/h
Sensor: Nr:Datum:Temp:Abs-Feuchte:Windchill:Wind:
Aussen-T/F 51 01-02-2015 13:25:00 2.2 C 5.35 g/m*3 2.2 C 3.2 km/h
52 01-02-2015 13:30:00 2.3 C 5.39 g/m*3 2.3 C 4.8 km/h
53 01-02-2015 13:35:00 2.4 C 5.42 g/m*3 2.4 C 4.8 km/h
54 01-02-2015 13:40:00 2.5 C 5.46 g/m*3 0.71 C 6.4 km/h
55 01-02-2015 13:45:00 2.7 C 5.54 g/m*3 2.7 C 4.8 km/h
56 01-02-2015 13:50:00 2.8 C 5.51 g/m*3 1.05 C 6.4 km/h
57 01-02-2015 13:55:00 3 C 5.59 g/m*3 3 C 3.2 km/h
58 01-02-2015 14:00:00 3.2 C 5.66 g/m*3 3.2 C 4.8 km/h
59 01-02-2015 14:05:00 3.3 C 5.64 g/m*3 1.63 C 6.4 km/h
60 01-02-2015 14:10:00 3.3 C 5.64 g/m*3 3.3 C 4.8 km/h
61 01-02-2015 15:05:00 3.8 C 6.27 g/m*3 3.8 C 3.2 km/h
62 01-02-2015 15:10:00 3.8 C 6.27 g/m*3 3.8 C 3.2 km/h
63 01-02-2015 15:35:00 3.9 C 5.68 g/m*3 3.9 C 0 km/h
64 01-02-2015 15:40:00 3.9 C 5.62 g/m*3 3.9 C 0 km/h
65 01-02-2015 15:45:00 3.9 C 5.62 g/m*3 3.9 C 4.8 km/h
66 01-02-2015 15:50:00 3.9 C 5.56 g/m*3 2.32 C 6.4 km/h
67 01-02-2015 15:55:00 3.9 C 5.56 g/m*3 3.9 C 4.8 km/h
68 01-02-2015 16:00:00 3.9 C 5.56 g/m*3 3.9 C 3.2 km/h
69 01-02-2015 16:05:00 3.9 C 5.56 g/m*3 3.9 C 4.8 km/h
70 01-02-2015 16:10:00 3.8 C 5.46 g/m*3 3.8 C 1.6 km/h
71 01-02-2015 16:15:00 3.8 C 5.52 g/m*3 3.8 C 4.8 km/h
72 01-02-2015 16:20:00 3.8 C 5.52 g/m*3 1.29 C 9.7 km/h
73 01-02-2015 16:25:00 3.8 C 5.52 g/m*3 3.8 C 3.2 km/h
74 01-02-2015 16:30:00 3.8 C 5.52 g/m*3 3.8 C 0 km/h
75 01-02-2015 16:35:00 3.7 C 5.48 g/m*3 3.7 C 3.2 km/h
Sensor: Nr:Datum:Temp:Abs-Feuchte:Windchill:Wind:
Aussen-T/F 76 01-02-2015 16:40:00 3.6 C 5.45 g/m*3 3.6 C 3.2 km/h
77 01-02-2015 16:45:00 3.5 C 5.47 g/m*3 3.5 C 3.2 km/h
78 01-02-2015 16:50:00 3.5 C 5.47 g/m*3 3.5 C 3.2 km/h
79 01-02-2015 16:55:00 3.5 C 5.47 g/m*3 3.5 C 3.2 km/h
80 01-02-2015 17:00:00 3.4 C 5.5 g/m*3 3.4 C 3.2 km/h
81 01-02-2015 17:05:00 3.2 C 5.42 g/m*3 3.2 C 3.2 km/h
82 01-02-2015 17:10:00 3.2 C 5.42 g/m*3 0.99 C 8.1 km/h
83 01-02-2015 17:15:00 3.2 C 5.42 g/m*3 1.51 C 6.4 km/h
84 01-02-2015 17:20:00 3.2 C 5.42 g/m*3 3.2 C 0 km/h
85 01-02-2015 20:05:00 1.8 C 5.32 g/m*3 1.8 C 0 km/h
86 01-02-2015 20:10:00 1.8 C 5.32 g/m*3 1.8 C 0 km/h
87 01-02-2015 20:15:00 1.8 C 5.32 g/m*3 1.8 C 0 km/h
88 01-02-2015 20:20:00 1.8 C 5.32 g/m*3 1.8 C 0 km/h
89 01-02-2015 20:25:00 1.8 C 5.32 g/m*3 1.8 C 0 km/h
90 01-02-2015 20:30:00 1.7 C 5.28 g/m*3 1.7 C 0 km/h
91 01-02-2015 20:35:00 1.7 C 5.28 g/m*3 1.7 C 0 km/h
92 01-02-2015 20:40:00 1.6 C 5.25 g/m*3 1.6 C 0 km/h
93 01-02-2015 20:45:00 1.4 C 5.12 g/m*3 1.4 C 0 km/h
94 01-02-2015 20:50:00 1.3 C 5.09 g/m*3 1.3 C 0 km/h
95 01-02-2015 20:55:00 1.3 C 5.09 g/m*3 1.3 C 0 km/h
96 01-02-2015 21:00:00 1.3 C 5.09 g/m*3 1.3 C 0 km/h
97 01-02-2015 21:40:00 1.3 C 5.14 g/m*3 1.3 C 1.6 km/h
98 01-02-2015 21:45:00 1.4 C 5.17 g/m*3 1.4 C 1.6 km/h
99 01-02-2015 21:50:00 1.4 C 5.17 g/m*3 1.4 C 4.8 km/h
100 01-02-2015 21:55:00 1.5 C 5.21 g/m*3 1.5 C 4.8 km/h
Sensor: Nr:Datum:Temp:Abs-Feuchte:Windchill:Wind:
Aussen-T/F 101 01-02-2015 22:00:00 1.6 C 5.25 g/m*3 -0.89 C 8.1 km/h
102 01-02-2015 22:05:00 1.6 C 5.25 g/m*3 -0.33 C 6.4 km/h
103 01-02-2015 22:10:00 1.6 C 5.25 g/m*3 -0.33 C 6.4 km/h
104 01-02-2015 22:15:00 1.6 C 5.25 g/m*3 -0.33 C 6.4 km/h
105 01-02-2015 22:20:00 1.7 C 5.28 g/m*3 1.7 C 4.8 km/h
106 01-02-2015 22:25:00 1.7 C 5.28 g/m*3 -0.22 C 6.4 km/h
107 01-02-2015 22:30:00 1.7 C 5.28 g/m*3 -0.22 C 6.4 km/h
108 01-02-2015 22:35:00 1.7 C 5.28 g/m*3 1.7 C 4.8 km/h
109 01-02-2015 22:40:00 1.7 C 5.28 g/m*3 -0.22 C 6.4 km/h
110 01-02-2015 22:45:00 1.7 C 5.28 g/m*3 1.7 C 1.6 km/h
111 01-02-2015 22:50:00 1.7 C 5.28 g/m*3 1.7 C 3.2 km/h
112 01-02-2015 22:55:00 1.7 C 5.28 g/m*3 1.7 C 0 km/h
113 01-02-2015 23:00:00 1.8 C 5.32 g/m*3 1.8 C 3.2 km/h
114 01-02-2015 23:05:00 1.8 C 5.32 g/m*3 1.8 C 3.2 km/h
115 01-02-2015 23:10:00 1.8 C 5.32 g/m*3 1.8 C 1.6 km/h
116 01-02-2015 23:15:00 1.7 C 5.28 g/m*3 1.7 C 0 km/h
117 01-02-2015 23:20:00 1.7 C 5.28 g/m*3 1.7 C 0 km/h
118 01-02-2015 23:25:00 1.7 C 5.28 g/m*3 1.7 C 3.2 km/h
119 01-02-2015 23:30:00 1.8 C 5.32 g/m*3 1.8 C 0 km/h
120 01-02-2015 23:35:00 1.8 C 5.32 g/m*3 1.8 C 3.2 km/h
121 01-02-2015 23:40:00 1.8 C 5.32 g/m*3 1.8 C 1.6 km/h
122 01-02-2015 23:45:00 1.8 C 5.32 g/m*3 -0.1 C 6.4 km/h
123 01-02-2015 23:50:00 1.9 C 5.35 g/m*3 1.9 C 3.2 km/h
124 01-02-2015 23:55:00 1.9 C 5.35 g/m*3 1.9 C 0 km/h

Legende:
   Min
   Max


Maximal/Minimal-Werte vom 01.02.2015 - 01.02.2015

Sensor Min Max Avg
Temp
(Aussen-T/F)
0.3 °C
01-02-2015  09:40:00
3.9 °C
01-02-2015  15:35:00
2.04 °C
Abs-Feuchte
(Aussen-T/F)
4.53 g/m*3
01-02-2015  08:50:00
6.27 g/m*3
01-02-2015  15:05:00
5.15 g/m*3
Windchill
(Aussen-T/F)
-1.95 C
01-02-2015  10:15:00
3.9 C
01-02-2015  15:35:00
1.34 C

Die Daten stammen von einer Davis Vantage Pro 2 Wetter-Station und werden unter Linux mit der Software wview2wettercgi und aufbereitet. Alle Angaben erfolgen ohne Gewähr für ihre Vollständigkeit oder Richtigkeit.
Kontakt: Rainer Krienke krienke@uni-koblenz.de . Meine Webseiten an der Uni Koblenz oder privat.
Version: $Revision: 0.78 $